Time;durP1;ratioP1;P1;durP2;ratioP2;P2;SDS_P1;SDS_P2;PMS_P1;PMS_P2;Temp;Humidity;BMP_temperature;BMP_pressure;BME280_temperature;BME280_humidity;BME280_pressure;Samples;Min_cycle;Max_cycle;Signal;HPM_P1;HPM_P2
2022/01/13 00:02:28;;;;;;;30.42;18.13;;;;;;;-1.78;78.08;102480.47;5031755;28;20057;-72
2022/01/13 00:04:54;;;;;;;28.45;18.08;;;;;;;-1.92;77.60;102480.97;5035382;28;20095;-71
2022/01/13 00:07:19;;;;;;;30.73;18.70;;;;;;;-2.17;78.53;102467.75;5034217;28;20033;-74
2022/01/13 00:09:45;;;;;;;27.13;20.35;;;;;;;-1.79;78.57;102478.66;5032391;28;20033;-74
2022/01/13 00:12:12;;;;;;;31.75;22.30;;;;;;;-1.91;78.33;102468.25;5032709;28;24260;-73
2022/01/13 00:14:51;;;;;;;29.77;20.92;;;;;;;-1.94;79.69;102472.25;5033933;28;20050;-75
2022/01/13 00:25:42;;;;;;;42.65;25.35;;;;;;;-2.55;80.89;102471.44;5002706;28;20441;-72
2022/01/13 00:28:16;;;;;;;35.88;23.02;;;;;;;-2.63;82.41;102457.00;5020739;28;20058;-73
2022/01/13 00:30:42;;;;;;;28.85;20.48;;;;;;;-2.27;80.79;102465.16;5032260;28;20120;-71
2022/01/13 00:33:11;;;;;;;35.55;25.33;;;;;;;-2.07;79.75;102469.41;5033087;28;20041;-73
2022/01/13 00:35:37;;;;;;;35.92;26.13;;;;;;;-2.06;79.88;102479.84;5033609;28;20034;-71
2022/01/13 00:38:03;;;;;;;35.95;27.67;;;;;;;-2.01;79.93;102493.09;5031039;28;20044;-72
2022/01/13 00:40:28;;;;;;;38.15;25.70;;;;;;;-2.08;80.52;102480.47;5033277;28;20061;-71
2022/01/13 00:42:54;;;;;;;45.25;22.83;;;;;;;-2.12;80.03;102492.19;5031208;28;20103;-73
2022/01/13 00:45:19;;;;;;;40.88;25.23;;;;;;;-1.90;79.40;102500.03;5030557;28;20515;-72
2022/01/13 00:47:45;;;;;;;33.80;21.77;;;;;;;-2.04;79.68;102493.72;5029909;28;20033;-71
2022/01/13 00:50:10;;;;;;;35.40;22.17;;;;;;;-2.56;81.19;102468.72;5030211;28;20485;-71
2022/01/13 00:52:36;;;;;;;45.47;28.73;;;;;;;-2.13;80.46;102485.25;5029699;28;20099;-71
2022/01/13 00:55:06;;;;;;;35.10;24.48;;;;;;;-2.31;80.95;102470.81;5032489;28;20129;-71
2022/01/13 00:57:32;;;;;;;44.40;22.73;;;;;;;-2.21;81.45;102488.81;5032602;28;20045;-74
2022/01/13 00:59:59;;;;;;;40.75;23.00;;;;;;;-2.05;80.83;102486.78;5032962;28;20052;-73
2022/01/13 01:02:25;;;;;;;39.25;24.40;;;;;;;-2.21;81.33;102470.81;5027990;28;20080;-77
2022/01/13 01:04:51;;;;;;;37.83;25.30;;;;;;;-2.27;81.39;102496.00;5026134;28;20052;-73
2022/01/13 01:07:16;;;;;;;40.63;23.45;;;;;;;-2.38;81.67;102478.00;5024883;28;20046;-75
2022/01/13 01:09:48;;;;;;;33.05;21.90;;;;;;;-2.42;81.31;102473.38;5018464;28;20046;-74
2022/01/13 01:12:14;;;;;;;37.38;23.38;;;;;;;-2.13;80.89;102470.72;5014129;28;20066;-73
2022/01/13 01:14:46;;;;;;;33.28;22.33;;;;;;;-2.10;81.16;102482.94;5012852;28;20037;-72
2022/01/13 01:17:16;;;;;;;42.55;25.35;;;;;;;-1.99;80.79;102482.16;5013887;28;20049;-77
2022/01/13 01:19:49;;;;;;;43.85;23.27;;;;;;;-1.90;79.83;102487.16;5016348;28;20053;-79
2022/01/13 01:27:43;;;;;;;33.45;22.55;;;;;;;-1.69;79.93;102482.91;4990666;28;20049;-72
2022/01/13 01:30:24;;;;;;;34.75;26.08;;;;;;;-2.20;81.21;102485.47;5020238;28;20033;-76
2022/01/13 01:32:49;;;;;;;41.50;24.63;;;;;;;-2.27;80.82;102457.44;5021635;28;20064;-78
2022/01/13 01:35:17;;;;;;;34.33;21.42;;;;;;;-2.06;79.99;102448.06;5021693;28;20476;-75
2022/01/13 01:37:44;;;;;;;36.90;22.10;;;;;;;-2.01;80.32;102467.38;5022349;28;20522;-72
2022/01/13 01:40:11;;;;;;;40.65;22.55;;;;;;;-1.95;80.24;102465.28;5022087;28;20038;-71
2022/01/13 01:42:37;;;;;;;41.22;23.55;;;;;;;-1.92;79.96;102474.19;5021637;28;20037;-72
2022/01/13 01:45:05;;;;;;;40.25;24.23;;;;;;;-2.05;80.23;102458.50;5013002;28;20087;-73
2022/01/13 01:47:31;;;;;;;36.13;25.73;;;;;;;-2.05;80.25;102465.31;5016514;28;20060;-73
2022/01/13 01:50:05;;;;;;;32.17;19.25;;;;;;;-1.79;78.96;102485.50;5014936;28;20076;-72
2022/01/13 01:52:31;;;;;;;45.83;28.95;;;;;;;-2.34;80.75;102468.91;5020883;28;20061;-70
2022/01/13 01:54:56;;;;;;;51.60;31.75;;;;;;;-2.17;80.92;102481.50;5021283;28;20461;-77
2022/01/13 01:57:24;;;;;;;46.58;25.55;;;;;;;-2.09;80.52;102483.81;5019747;28;20059;-73
2022/01/13 01:59:50;;;;;;;45.42;28.42;;;;;;;-1.98;80.53;102485.63;5021945;28;20034;-73
2022/01/13 02:02:17;;;;;;;43.90;30.92;;;;;;;-2.22;81.51;102481.91;5016586;28;20042;-73
2022/01/13 02:04:43;;;;;;;40.75;26.60;;;;;;;-2.33;81.48;102458.72;5014654;28;20565;-75
2022/01/13 02:07:10;;;;;;;43.05;28.85;;;;;;;-2.13;80.81;102470.72;5017706;28;20116;-71
2022/01/13 02:09:38;;;;;;;38.30;28.63;;;;;;;-2.26;81.05;102459.25;5016765;28;20046;-73
2022/01/13 02:12:08;;;;;;;42.88;30.05;;;;;;;-2.02;81.13;102463.88;5018764;28;20036;-72
2022/01/13 02:14:46;;;;;;;45.55;28.20;;;;;;;-1.82;80.60;102467.25;5019046;28;20037;-74
2022/01/13 02:17:20;;;;;;;47.90;27.55;;;;;;;-1.63;79.77;102470.53;5015199;28;20061;-78
2022/01/13 02:19:46;;;;;;;43.10;25.73;;;;;;;-1.58;78.17;102448.66;5016637;28;20564;-72
2022/01/13 02:22:12;;;;;;;31.90;20.58;;;;;;;-1.66;79.02;102474.53;5018569;28;20109;-72
2022/01/13 02:24:38;;;;;;;48.67;27.23;;;;;;;-1.91;80.20;102467.38;5017665;28;20049;-72
2022/01/13 02:27:05;;;;;;;41.45;29.30;;;;;;;-1.93;79.80;102474.03;5012549;28;20033;-72
2022/01/13 02:29:31;;;;;;;45.08;25.52;;;;;;;-1.98;79.59;102470.19;5013261;28;20041;-72
2022/01/13 02:31:57;;;;;;;47.22;27.75;;;;;;;-1.91;79.98;102467.38;5015219;28;20462;-74
2022/01/13 02:34:22;;;;;;;43.10;24.13;;;;;;;-1.67;80.04;102475.31;5014395;28;20038;-73
2022/01/13 02:36:52;;;;;;;36.47;21.77;;;;;;;-1.76;79.40;102472.88;5016117;28;20493;-73
2022/01/13 02:39:17;;;;;;;44.67;22.33;;;;;;;-1.78;79.82;102477.91;5016216;28;20033;-70
2022/01/13 02:41:44;;;;;;;38.20;21.33;;;;;;;-1.86;79.57;102471.22;5016104;28;20049;-72
2022/01/13 02:44:16;;;;;;;33.63;20.25;;;;;;;-1.86;79.81;102481.50;5013166;28;20105;-72
2022/01/13 02:49:12;;;;;;;46.63;26.65;;;;;;;-2.23;79.96;102462.06;5016108;28;20049;-74
2022/01/13 02:51:40;;;;;;;42.85;26.23;;;;;;;-2.13;80.76;102468.13;5018345;28;20463;-72
2022/01/13 02:54:06;;;;;;;41.78;26.60;;;;;;;-2.35;81.90;102483.41;5018710;28;20056;-73
2022/01/13 02:56:32;;;;;;;34.90;23.60;;;;;;;-2.79;83.14;102471.88;5015476;28;20088;-71
2022/01/13 03:01:33;;;;;;;34.70;22.38;;;;;;;-2.53;82.82;102484.38;5078071;27;20617;-74
2022/01/13 03:04:06;;;;;;;36.45;22.60;;;;;;;-2.37;82.56;102479.78;5058327;28;20488;-74
2022/01/13 03:06:35;;;;;;;36.85;21.48;;;;;;;-1.86;81.08;102475.47;5056735;28;20480;-72
2022/01/13 03:09:03;;;;;;;37.70;20.13;;;;;;;-2.04;80.91;102485.09;5057750;28;20121;-71
2022/01/13 03:11:37;;;;;;;40.15;21.60;;;;;;;-2.51;82.64;102485.41;5056918;28;20480;-71
2022/01/13 03:14:04;;;;;;;;;;;;;;;-2.00;80.96;102488.06;5056801;28;20037;-73
2022/01/13 03:16:30;;;;;;;30.45;16.77;;;;;;;-1.82;80.01;102464.66;5058524;28;20391;-70
2022/01/13 03:18:56;;;;;;;30.83;18.30;;;;;;;-1.87;80.24;102468.50;5057668;28;20447;-71
2022/01/13 03:21:21;;;;;;;28.67;16.77;;;;;;;-2.07;81.36;102475.47;5038757;28;20031;-71
2022/01/13 03:23:46;;;;;;;26.40;16.35;;;;;;;-1.75;80.56;102465.28;5058312;28;20031;-70
2022/01/13 03:26:12;;;;;;;27.17;15.50;;;;;;;-1.58;80.03;102468.34;5054111;28;20103;-72
2022/01/13 03:28:51;;;;;;;28.65;17.60;;;;;;;-1.43;79.00;102477.31;5055220;28;20523;-74
2022/01/13 03:31:18;;;;;;;28.95;18.58;;;;;;;-1.47;78.56;102472.72;5056969;28;20056;-72
2022/01/13 03:33:44;;;;;;;28.27;18.55;;;;;;;-1.34;77.94;102467.75;5055991;28;20500;-71
2022/01/13 03:36:10;;;;;;;35.08;17.20;;;;;;;-1.38;78.03;102462.25;5057925;28;20500;-74
2022/01/13 03:38:37;;;;;;;24.38;16.85;;;;;;;-1.19;77.15;102446.63;5057142;28;20058;-77
2022/01/13 03:41:03;;;;;;;26.77;15.75;;;;;;;-1.27;76.89;102470.06;5041763;28;20102;-71
2022/01/13 03:43:29;;;;;;;30.85;18.90;;;;;;;-1.12;76.69;102482.41;5049372;28;20040;-77
2022/01/13 03:45:55;;;;;;;29.70;17.40;;;;;;;-1.28;76.86;102454.50;5056746;28;20354;-72
2022/01/13 03:48:21;;;;;;;26.95;16.85;;;;;;;-0.98;76.21;102471.53;5056562;28;20033;-73
2022/01/13 03:50:47;;;;;;;33.50;17.17;;;;;;;-1.04;76.28;102459.81;5056405;28;20094;-72
2022/01/13 03:53:28;;;;;;;27.88;17.02;;;;;;;-0.84;76.39;102488.09;5056477;28;20468;-71
2022/01/13 03:56:31;;;;;;;30.10;17.35;;;;;;;-0.85;76.29;102479.44;5056268;28;20044;-71
2022/01/13 03:59:15;;;;;;;29.90;18.70;;;;;;;-1.06;76.54;102491.50;5057319;28;20077;-72
2022/01/13 04:01:46;;;;;;;25.05;16.45;;;;;;;-1.03;76.73;102489.94;5058191;28;20064;-71
2022/01/13 04:04:12;;;;;;;29.15;17.02;;;;;;;-0.99;76.33;102471.38;5054426;28;20481;-74
2022/01/13 04:06:43;;;;;;;28.42;18.17;;;;;;;-0.91;76.28;102483.22;5056966;28;20043;-73
2022/01/13 04:09:34;;;;;;;35.35;18.67;;;;;;;-0.77;75.54;102476.56;5056008;28;20036;-74
2022/01/13 04:12:04;;;;;;;35.95;15.48;;;;;;;-1.01;75.83;102467.78;5040366;28;20076;-72
2022/01/13 04:17:16;;;;;;;31.25;17.48;;;;;;;-1.00;76.00;102460.19;5042970;28;20139;-76
2022/01/13 04:19:42;;;;;;;;;;;;;;;-0.95;76.09;102479.50;5044482;28;20126;-72
2022/01/13 04:22:09;;;;;;;32.92;18.70;;;;;;;-1.05;75.88;102461.50;5042776;28;19970;-74
2022/01/13 04:25:27;;;;;;;29.05;18.73;;;;;;;-0.99;75.84;102477.44;5019436;28;20627;-72
2022/01/13 04:28:00;;;;;;;29.00;17.10;;;;;;;-1.06;76.29;102495.75;5007373;28;20072;-72
2022/01/13 04:30:43;;;;;;;26.65;15.02;;;;;;;-1.51;76.89;102491.25;5010918;28;20033;-72
2022/01/13 04:33:09;;;;;;;34.60;17.83;;;;;;;-1.85;77.91;102493.63;5008388;28;20349;-73
2022/01/13 04:35:34;;;;;;;31.55;17.15;;;;;;;-1.89;78.36;102468.41;5006011;28;20368;-75
2022/01/13 04:38:00;;;;;;;24.75;17.45;;;;;;;-1.42;77.57;102483.38;5007059;28;20470;-72
2022/01/13 04:40:26;;;;;;;32.53;19.65;;;;;;;-1.39;77.33;102488.78;5007102;28;20121;-72
2022/01/13 04:42:55;;;;;;;30.15;17.70;;;;;;;-1.20;77.28;102498.91;5004853;28;20052;-72
2022/01/13 04:45:22;;;;;;;28.60;17.15;;;;;;;-1.20;76.63;102486.91;5006542;28;20112;-73
2022/01/13 04:47:52;;;;;;;27.83;19.42;;;;;;;-1.21;77.10;102513.47;5004293;28;20030;-77
2022/01/13 04:50:20;;;;;;;23.90;18.33;;;;;;;-1.15;76.99;102495.00;5006632;28;20481;-72
2022/01/13 04:52:45;;;;;;;27.45;18.08;;;;;;;-0.99;76.13;102489.44;5003663;28;20526;-71
2022/01/13 04:55:13;;;;;;;33.35;20.45;;;;;;;-0.93;76.35;102519.16;5009055;28;20072;-72
2022/01/13 04:57:39;;;;;;;33.13;19.38;;;;;;;-0.80;76.33;102514.97;5006083;28;20054;-72
2022/01/13 05:00:07;;;;;;;30.88;18.45;;;;;;;-1.18;76.73;102494.78;5009380;28;20122;-72
2022/01/13 05:02:33;;;;;;;25.77;17.92;;;;;;;-1.43;76.82;102482.47;5007368;28;20044;-71
2022/01/13 05:07:27;;;;;;;42.60;20.35;;;;;;;-0.95;75.47;102488.91;5030389;28;20628;-72
2022/01/13 05:11:33;;;;;;;30.48;18.27;;;;;;;-0.96;75.10;102499.97;5066177;27;20622;-73
2022/01/13 05:13:58;;;;;;;27.83;17.90;;;;;;;-1.19;76.21;102521.31;5029614;28;20366;-81
2022/01/13 05:16:30;;;;;;;23.52;17.27;;;;;;;-1.09;76.02;102495.53;5021249;28;20092;-76
2022/01/13 05:19:10;;;;;;;27.23;19.13;;;;;;;-1.01;76.51;102519.31;5009264;28;20050;-73
2022/01/13 05:24:20;;;;;;;28.13;17.83;;;;;;;-1.15;75.70;102493.38;5025766;28;20540;-73
2022/01/13 05:26:45;;;;;;;28.63;17.10;;;;;;;-0.84;75.18;102493.25;5020769;28;20030;-71
2022/01/13 05:29:16;;;;;;;27.17;17.20;;;;;;;-0.97;75.15;102485.28;5007414;28;20057;-71
2022/01/13 05:31:41;;;;;;;35.22;19.95;;;;;;;-0.89;74.83;102500.59;5023888;28;20033;-81
2022/01/13 05:34:07;;;;;;;26.60;17.20;;;;;;;-0.63;74.49;102517.25;5023822;28;20147;-72
2022/01/13 05:36:34;;;;;;;33.83;17.23;;;;;;;-0.52;74.10;102526.69;5024880;28;20048;-72
2022/01/13 05:38:59;;;;;;;27.77;18.88;;;;;;;-0.76;73.86;102522.19;5020131;28;20076;-73
2022/01/13 05:41:24;;;;;;;30.58;19.92;;;;;;;-1.00;74.82;102509.16;5024832;28;20037;-71
2022/01/13 05:43:50;;;;;;;37.58;20.63;;;;;;;-0.87;75.35;102536.78;5025951;28;20143;-72
2022/01/13 05:46:15;;;;;;;32.33;17.85;;;;;;;-0.69;74.29;102533.09;5022851;28;23323;-73
2022/01/13 05:48:41;;;;;;;34.00;19.15;;;;;;;-0.93;74.53;102503.72;5037867;28;20045;-74
2022/01/13 05:51:06;;;;;;;28.38;19.77;;;;;;;-0.73;74.20;102530.16;5022691;28;20044;-81
2022/01/13 05:53:32;;;;;;;25.92;17.33;;;;;;;-0.69;74.70;102530.53;5021785;28;20025;-73
2022/01/13 05:55:57;;;;;;;27.85;19.08;;;;;;;-0.77;75.02;102541.91;5021215;28;20042;-76
2022/01/13 05:58:23;;;;;;;35.50;18.55;;;;;;;-0.89;75.28;102541.84;5022433;28;20456;-76
2022/01/13 06:00:48;;;;;;;38.05;21.95;;;;;;;-0.72;75.11;102532.88;5021020;28;20484;-74
2022/01/13 06:03:13;;;;;;;33.72;20.77;;;;;;;-0.79;74.68;102528.00;5024524;28;20045;-75
2022/01/13 06:05:39;;;;;;;33.90;22.98;;;;;;;-1.06;75.31;102521.50;5023503;28;20029;-74
2022/01/13 06:08:05;;;;;;;33.47;21.42;;;;;;;-0.79;75.53;102543.47;5023543;28;21662;-74
2022/01/13 06:10:30;;;;;;;27.92;19.73;;;;;;;-0.82;75.16;102544.88;5021881;28;20034;-77
2022/01/13 06:12:56;;;;;;;34.10;20.23;;;;;;;-0.93;75.38;102554.34;5025475;28;20060;-76
2022/01/13 06:15:24;;;;;;;29.25;22.90;;;;;;;-1.35;76.63;102561.25;5021559;28;20053;-77
2022/01/13 06:17:53;;;;;;;30.40;20.27;;;;;;;-1.46;76.76;102543.13;5023295;28;20060;-73
2022/01/13 06:20:20;;;;;;;45.90;22.75;;;;;;;-1.62;77.50;102536.69;5022636;28;20045;-73
2022/01/13 06:22:47;;;;;;;28.83;21.25;;;;;;;-1.42;76.89;102563.19;5008803;28;20060;-72
2022/01/13 06:25:14;;;;;;;31.08;19.88;;;;;;;-1.01;76.35;102568.25;5004988;28;20041;-73
2022/01/13 06:27:40;;;;;;;29.73;19.05;;;;;;;-0.87;75.63;102549.66;5007652;28;20085;-74
2022/01/13 06:30:09;;;;;;;46.13;19.63;;;;;;;-1.02;75.02;102581.94;5005968;28;20053;-78
2022/01/13 06:32:36;;;;;;;40.15;22.75;;;;;;;-1.52;76.13;102552.13;5005661;28;20057;-74
2022/01/13 06:35:02;;;;;;;46.65;24.67;;;;;;;-1.30;77.26;102579.66;5000016;28;20142;-76
2022/01/13 06:37:28;;;;;;;41.78;25.48;;;;;;;-1.79;78.68;102584.16;4996742;28;20533;-72
2022/01/13 06:39:53;;;;;;;40.90;25.85;;;;;;;-1.93;79.95;102572.69;4983141;28;21625;-71
2022/01/13 06:43:33;;;;;;;57.97;37.92;;;;;;;-1.06;78.16;102576.50;5036155;28;21217;-74
2022/01/13 06:45:59;;;;;;;39.13;25.58;;;;;;;-1.06;76.79;102561.06;5019756;28;20045;-73
2022/01/13 06:48:25;;;;;;;48.10;28.13;;;;;;;-1.47;77.60;102567.97;5020003;28;20037;-75
2022/01/13 06:50:51;;;;;;;38.67;28.17;;;;;;;-0.98;77.40;102582.31;5033491;28;20028;-77
2022/01/13 06:53:16;;;;;;;34.00;26.65;;;;;;;-1.10;76.99;102553.88;5032844;28;20111;-72
2022/01/13 06:55:41;;;;;;;37.65;24.17;;;;;;;-1.68;78.41;102597.06;5031641;28;20057;-82
2022/01/13 06:58:07;;;;;;;57.50;28.63;;;;;;;-2.30;80.36;102566.06;5065138;28;20049;-71
2022/01/13 07:00:33;;;;;;;55.00;26.08;;;;;;;-1.46;79.35;102579.16;5031236;28;20041;-72
2022/01/13 07:03:01;;;;;;;41.35;25.65;;;;;;;-1.32;78.13;102584.66;5031788;28;20076;-75
2022/01/13 07:05:27;;;;;;;43.33;28.10;;;;;;;-1.70;78.55;102573.75;5031331;28;20041;-72
2022/01/13 07:07:53;;;;;;;36.75;26.60;;;;;;;-1.42;78.51;102583.81;5031034;28;20042;-72
2022/01/13 07:10:18;;;;;;;35.35;24.00;;;;;;;-1.36;77.84;102595.50;5031903;28;20681;-72
2022/01/13 07:12:43;;;;;;;33.80;23.98;;;;;;;-1.76;78.42;102575.81;5030730;28;20037;-73
2022/01/13 07:15:10;;;;;;;42.65;25.23;;;;;;;-1.74;78.31;102597.41;5033684;28;20091;-71
2022/01/13 07:17:36;;;;;;;35.80;26.42;;;;;;;-1.55;78.02;102589.56;5030866;28;20037;-72
2022/01/13 07:20:04;;;;;;;34.10;22.63;;;;;;;-1.51;77.63;102584.81;5031698;28;20042;-79
2022/01/13 07:23:35;;;;;;;61.22;27.45;;;;;;;-1.62;77.96;102572.72;5054533;28;20985;-72
2022/01/13 07:26:02;;;;;;;42.97;22.92;;;;;;;-1.28;77.16;102597.03;5034474;28;20053;-74
2022/01/13 07:28:29;;;;;;;38.03;25.05;;;;;;;-1.50;77.06;102570.25;5034492;28;20049;-71
2022/01/13 07:30:56;;;;;;;42.63;23.55;;;;;;;-1.35;77.12;102592.16;5034374;28;20044;-71
2022/01/13 07:33:22;;;;;;;34.53;23.40;;;;;;;-1.41;77.25;102590.72;5033231;28;20037;-71
2022/01/13 07:35:48;;;;;;;41.33;25.50;;;;;;;-1.56;77.69;102585.22;5033665;28;20349;-71
2022/01/13 07:38:13;;;;;;;40.50;23.38;;;;;;;-1.51;77.45;102600.25;5032699;28;20045;-71
2022/01/13 07:40:39;;;;;;;40.42;25.83;;;;;;;-1.33;77.60;102615.47;5033564;28;20047;-71
2022/01/13 07:43:04;;;;;;;41.30;25.38;;;;;;;-1.08;77.02;102626.09;5034778;28;20095;-70
2022/01/13 07:45:30;;;;;;;38.33;26.15;;;;;;;-1.12;76.26;102626.66;5033783;28;20462;-73
2022/01/13 07:47:55;;;;;;;43.00;27.02;;;;;;;-1.12;76.23;102619.81;5034427;28;20045;-72
2022/01/13 07:50:21;;;;;;;34.17;24.88;;;;;;;-1.28;76.72;102609.03;5032227;28;20377;-71
2022/01/13 07:52:46;;;;;;;38.17;25.00;;;;;;;-1.04;76.70;102623.03;5035119;28;20102;-72
2022/01/13 07:55:12;;;;;;;38.75;25.08;;;;;;;-1.69;76.82;102596.13;5035479;28;20061;-70
2022/01/13 07:57:38;;;;;;;38.20;20.42;;;;;;;-1.65;76.85;102616.22;5034043;28;20032;-71
2022/01/13 08:00:07;;;;;;;32.67;19.67;;;;;;;-1.45;77.23;102620.50;5032381;28;20021;-71
2022/01/13 08:02:32;;;;;;;34.75;21.02;;;;;;;-1.41;76.96;102627.69;5032460;28;20156;-71
2022/01/13 08:04:58;;;;;;;34.97;23.63;;;;;;;-1.37;77.25;102632.31;5031246;28;20041;-76
2022/01/13 08:07:23;;;;;;;38.92;23.77;;;;;;;-1.68;77.89;102597.94;5031820;28;20451;-74
2022/01/13 08:09:49;;;;;;;41.65;24.80;;;;;;;-1.38;76.51;102597.06;5031531;28;20037;-72
2022/01/13 08:12:14;;;;;;;47.35;22.25;;;;;;;-1.31;76.80;102598.47;5032101;28;20021;-71
2022/01/13 08:14:40;;;;;;;50.65;21.50;;;;;;;-1.57;77.16;102597.19;5033733;28;20082;-74
2022/01/13 08:17:07;;;;;;;35.45;24.13;;;;;;;-1.42;77.21;102597.56;5033295;28;20076;-74
2022/01/13 08:19:45;;;;;;;31.67;21.55;;;;;;;-1.30;76.72;102619.19;5029671;28;20618;-75
2022/01/13 08:22:12;;;;;;;30.08;21.67;;;;;;;-1.13;76.76;102619.69;5030327;28;20048;-76
2022/01/13 08:24:37;;;;;;;31.55;20.75;;;;;;;-1.03;76.31;102606.81;5032273;28;20041;-72
2022/01/13 08:27:03;;;;;;;41.53;19.95;;;;;;;-0.86;76.21;102621.06;5028540;28;20072;-74
2022/01/13 08:29:29;;;;;;;28.60;19.20;;;;;;;-1.14;75.47;102592.13;5033707;28;20053;-73
2022/01/13 08:31:54;;;;;;;36.10;19.48;;;;;;;-0.93;76.56;102604.19;5033974;28;20045;-72
2022/01/13 08:34:20;;;;;;;31.73;19.52;;;;;;;-0.76;75.53;102589.22;5024064;28;20541;-72
2022/01/13 08:36:45;;;;;;;29.77;18.58;;;;;;;-0.79;75.97;102601.84;5018390;28;20041;-71
2022/01/13 08:39:11;;;;;;;39.67;21.45;;;;;;;-0.57;75.76;102589.00;5018817;28;20034;-71
2022/01/13 08:41:39;;;;;;;45.10;19.77;;;;;;;-0.57;75.02;102556.38;5019816;28;20041;-76
2022/01/13 08:44:05;;;;;;;37.35;20.58;;;;;;;-0.55;74.09;102580.59;5017767;28;20034;-76
2022/01/13 08:46:30;;;;;;;31.58;21.52;;;;;;;-0.72;74.83;102558.66;5018507;28;20042;-76
2022/01/13 08:48:56;;;;;;;37.78;20.80;;;;;;;-0.43;74.17;102553.22;5017167;28;20056;-79
2022/01/13 08:51:22;;;;;;;36.65;21.80;;;;;;;-0.48;74.38;102567.44;5018838;28;20029;-74
2022/01/13 08:53:48;;;;;;;35.80;23.40;;;;;;;-0.67;74.72;102566.75;5018950;28;20104;-71
2022/01/13 08:56:14;;;;;;;37.03;21.08;;;;;;;-0.67;74.41;102535.81;5015568;28;20054;-72
2022/01/13 08:58:41;;;;;;;35.00;24.80;;;;;;;-0.30;74.25;102562.84;5020785;28;20132;-72
2022/01/13 09:01:07;;;;;;;33.10;20.77;;;;;;;-0.35;73.41;102545.19;5020080;28;20034;-72
2022/01/13 09:03:33;;;;;;;37.97;23.27;;;;;;;-0.75;74.32;102555.84;5017903;28;20826;-73
2022/01/13 09:05:59;;;;;;;36.75;21.75;;;;;;;-0.74;74.43;102528.38;5018678;28;20033;-73
2022/01/13 09:08:25;;;;;;;36.38;24.15;;;;;;;-0.56;74.23;102541.81;5016470;28;20038;-73
2022/01/13 09:10:51;;;;;;;28.75;19.70;;;;;;;-0.22;74.07;102540.22;5020737;28;20092;-71
2022/01/13 09:13:17;;;;;;;36.47;22.35;;;;;;;-0.16;73.78;102538.13;5015307;28;20054;-72
2022/01/13 09:15:49;;;;;;;38.83;23.85;;;;;;;-0.12;73.50;102528.91;5016745;28;20060;-79
2022/01/13 09:18:18;;;;;;;32.67;21.92;;;;;;;-0.04;73.78;102520.09;5018471;28;20036;-78
2022/01/13 09:20:46;;;;;;;31.90;23.60;;;;;;;-0.32;73.54;102515.38;5017726;28;20121;-75
2022/01/13 09:23:12;;;;;;;38.78;23.23;;;;;;;-0.36;74.13;102523.66;5018986;28;20068;-69
2022/01/13 09:25:38;;;;;;;35.47;24.52;;;;;;;0.10;73.73;102536.66;5014493;28;20141;-71
2022/01/13 09:28:05;;;;;;;34.28;22.20;;;;;;;-0.02;73.64;102540.09;5019370;28;20045;-71
2022/01/13 09:30:31;;;;;;;35.35;23.73;;;;;;;-0.62;74.19;102500.09;5016369;28;20148;-75
2022/01/13 09:32:57;;;;;;;42.70;24.52;;;;;;;-0.32;74.40;102522.22;5018476;28;20041;-70
2022/01/13 09:35:22;;;;;;;52.40;25.50;;;;;;;-0.08;73.72;102528.38;5017539;28;21206;-71
2022/01/13 09:37:48;;;;;;;40.78;25.15;;;;;;;0.09;73.48;102511.59;5019553;28;20504;-71
2022/01/13 09:40:15;;;;;;;34.88;24.33;;;;;;;-0.17;73.88;102518.25;5017047;28;20156;-78
2022/01/13 09:42:43;;;;;;;39.05;25.33;;;;;;;-0.27;74.47;102511.47;5019597;28;20413;-71
2022/01/13 09:45:10;;;;;;;36.03;23.58;;;;;;;0.09;73.18;102522.81;5016411;28;20058;-72
2022/01/13 09:47:36;;;;;;;40.50;25.38;;;;;;;0.46;72.34;102535.94;5017983;28;20080;-71
2022/01/13 09:50:09;;;;;;;39.08;25.23;;;;;;;0.27;73.11;102505.25;5016782;28;20060;-72
2022/01/13 09:52:36;;;;;;;40.03;22.92;;;;;;;-0.22;72.85;102517.00;5017987;28;20049;-75
2022/01/13 09:55:02;;;;;;;35.05;22.17;;;;;;;-0.14;73.58;102507.25;5017861;28;20072;-73
2022/01/13 09:57:28;;;;;;;37.28;22.75;;;;;;;0.16;72.38;102485.47;5017767;28;20060;-72
2022/01/13 09:59:57;;;;;;;33.88;21.25;;;;;;;0.14;71.79;102482.78;5016991;28;20030;-71
2022/01/13 10:02:23;;;;;;;38.30;20.75;;;;;;;0.13;71.59;102490.41;5017136;28;20049;-72
2022/01/13 10:04:53;;;;;;;35.10;23.02;;;;;;;0.27;71.20;102506.94;5017223;28;20038;-72
2022/01/13 10:07:37;;;;;;;30.60;20.63;;;;;;;-0.08;70.68;102463.88;5017599;28;20057;-74
2022/01/13 10:10:09;;;;;;;41.55;20.35;;;;;;;0.83;69.56;102503.41;5016397;28;20044;-74
2022/01/13 10:12:41;;;;;;;36.75;24.40;;;;;;;0.15;69.53;102504.34;5018158;28;20041;-72
2022/01/13 10:18:04;;;;;;;37.40;21.55;;;;;;;0.67;68.26;102474.66;5017049;28;20091;-72
2022/01/13 10:20:31;;;;;;;50.17;24.90;;;;;;;0.88;69.02;102497.69;5017791;28;20049;-73
2022/01/13 10:23:14;;;;;;;33.53;20.65;;;;;;;0.55;68.44;102500.47;5018706;28;20124;-71
2022/01/13 10:25:43;;;;;;;28.98;20.80;;;;;;;0.71;68.57;102492.19;5009328;28;20068;-73
2022/01/13 10:28:22;;;;;;;35.95;20.77;;;;;;;0.88;66.98;102495.09;5017993;28;20057;-77
2022/01/13 10:30:51;;;;;;;35.80;21.40;;;;;;;0.87;67.08;102464.84;5016117;28;20029;-72
2022/01/13 10:33:23;;;;;;;34.45;19.17;;;;;;;0.55;67.58;102463.41;5016388;28;20048;-76
2022/01/13 10:35:51;;;;;;;35.63;23.27;;;;;;;0.85;66.49;102428.59;5016363;28;20057;-73
2022/01/13 10:38:17;;;;;;;38.38;19.83;;;;;;;1.12;66.11;102444.25;5015530;28;20045;-71
2022/01/13 10:40:47;;;;;;;33.13;19.52;;;;;;;1.00;67.17;102434.84;5016009;28;20045;-72
2022/01/13 10:43:15;;;;;;;34.47;18.60;;;;;;;0.73;67.23;102446.69;5013620;28;20512;-71
2022/01/13 10:45:48;;;;;;;36.05;22.58;;;;;;;0.55;68.14;102429.84;5015023;28;20473;-71
2022/01/13 10:48:22;;;;;;;31.90;20.23;;;;;;;0.28;68.84;102428.69;5017365;28;20025;-73
2022/01/13 10:50:52;;;;;;;29.00;17.88;;;;;;;0.38;69.04;102451.84;5017016;28;20405;-74
2022/01/13 10:53:30;;;;;;;45.67;27.00;;;;;;;0.39;68.91;102440.72;5017385;28;20049;-73
2022/01/13 10:55:55;;;;;;;32.78;19.90;;;;;;;0.53;69.09;102428.81;5017393;28;20037;-78
2022/01/13 10:58:30;;;;;;;34.00;19.63;;;;;;;0.14;69.83;102413.09;5015484;28;20103;-77
2022/01/13 11:00:57;;;;;;;39.42;19.67;;;;;;;0.13;70.17;102382.91;5015309;28;20049;-72
2022/01/13 11:03:25;;;;;;;46.28;25.48;;;;;;;-0.09;70.11;102395.00;5017071;28;20037;-72
2022/01/13 11:05:59;;;;;;;31.33;20.00;;;;;;;0.03;69.28;102366.63;5017592;28;20461;-71
2022/01/13 11:08:33;;;;;;;29.45;17.67;;;;;;;-0.12;69.64;102380.16;5014952;28;20089;-85
2022/01/13 11:11:02;;;;;;;;;;;;;;;0.58;68.63;102381.88;5016472;28;20046;-70
2022/01/13 11:13:30;;;;;;;32.85;19.65;;;;;;;0.17;69.02;102389.19;5016174;28;20343;-74
2022/01/13 11:15:57;;;;;;;36.85;24.05;;;;;;;0.02;69.25;102378.63;5017982;28;20037;-74
2022/01/13 11:18:25;;;;;;;28.30;19.35;;;;;;;-0.24;69.08;102395.63;5016519;28;20472;-72
2022/01/13 11:20:52;;;;;;;32.28;17.80;;;;;;;-0.14;69.40;102404.97;5016639;28;20132;-78
2022/01/13 11:23:19;;;;;;;33.35;19.63;;;;;;;0.22;68.38;102392.13;5016520;28;20073;-74
2022/01/13 11:25:46;;;;;;;30.02;18.13;;;;;;;0.37;67.97;102381.22;5012887;28;20742;-73
2022/01/13 11:28:13;;;;;;;24.73;15.70;;;;;;;0.60;66.99;102402.66;5018055;28;20095;-73
2022/01/13 11:30:38;;;;;;;32.55;21.33;;;;;;;0.00;67.04;102382.78;5015054;28;20038;-75
2022/01/13 11:33:04;;;;;;;26.45;15.57;;;;;;;0.33;67.32;102391.22;5014888;28;20433;-72
2022/01/13 11:35:34;;;;;;;24.50;16.25;;;;;;;0.38;66.30;102377.84;5016746;28;20056;-72
2022/01/13 11:38:04;;;;;;;26.23;16.90;;;;;;;0.35;66.86;102358.66;5015822;28;20041;-72
2022/01/13 11:40:36;;;;;;;47.28;16.05;;;;;;;-0.01;66.65;102371.56;5015509;28;20419;-77
2022/01/13 11:43:04;;;;;;;31.45;17.20;;;;;;;0.06;66.78;102367.75;5011230;28;21296;-75
2022/01/13 11:45:37;;;;;;;33.55;17.98;;;;;;;0.53;66.43;102366.84;5017127;28;20064;-71
2022/01/13 11:48:10;;;;;;;;;;;;;;;0.76;65.24;102360.75;5016604;28;20033;-72
2022/01/13 11:51:43;;;;;;;26.10;16.15;;;;;;;0.42;64.72;102353.16;5026586;28;20655;-72